sensor_id;sensor_type;location;lat;lon;timestamp;temperature;humidity
26063;DHT22;13837;48.562;12.108;2022-09-29T00:01:31;8.20;99.90
26063;DHT22;13837;48.562;12.108;2022-09-29T00:03:57;8.10;99.90
26063;DHT22;13837;48.562;12.108;2022-09-29T00:06:23;8.20;99.90
26063;DHT22;13837;48.562;12.108;2022-09-29T00:08:49;8.10;99.90
26063;DHT22;13837;48.562;12.108;2022-09-29T00:11:18;8.10;99.90
26063;DHT22;13837;48.562;12.108;2022-09-29T00:13:44;8.10;99.90
26063;DHT22;13837;48.562;12.108;2022-09-29T00:16:10;8.10;99.90
26063;DHT22;13837;48.562;12.108;2022-09-29T00:18:37;8.10;99.90
26063;DHT22;13837;48.562;12.108;2022-09-29T00:23:34;8.10;99.90
26063;DHT22;13837;48.562;12.108;2022-09-29T00:28:32;8.00;99.90
26063;DHT22;13837;48.562;12.108;2022-09-29T00:31:00;7.80;99.90
26063;DHT22;13837;48.562;12.108;2022-09-29T00:33:31;7.80;99.90
26063;DHT22;13837;48.562;12.108;2022-09-29T00:36:06;7.70;99.90
26063;DHT22;13837;48.562;12.108;2022-09-29T00:38:33;7.80;99.90
26063;DHT22;13837;48.562;12.108;2022-09-29T00:40:59;7.80;99.90
26063;DHT22;13837;48.562;12.108;2022-09-29T00:49:17;7.90;99.90
26063;DHT22;13837;48.562;12.108;2022-09-29T00:51:51;8.00;99.90
26063;DHT22;13837;48.562;12.108;2022-09-29T00:54:19;8.00;99.90
26063;DHT22;13837;48.562;12.108;2022-09-29T00:56:46;7.90;99.90
26063;DHT22;13837;48.562;12.108;2022-09-29T00:59:18;7.80;99.90
26063;DHT22;13837;48.562;12.108;2022-09-29T01:01:45;7.80;99.90
26063;DHT22;13837;48.562;12.108;2022-09-29T01:04:14;7.90;99.90
26063;DHT22;13837;48.562;12.108;2022-09-29T01:06:56;7.90;99.90
26063;DHT22;13837;48.562;12.108;2022-09-29T01:09:34;7.90;99.90
26063;DHT22;13837;48.562;12.108;2022-09-29T01:12:01;7.90;99.90
26063;DHT22;13837;48.562;12.108;2022-09-29T01:14:29;7.80;99.90
26063;DHT22;13837;48.562;12.108;2022-09-29T01:16:56;7.90;99.90
26063;DHT22;13837;48.562;12.108;2022-09-29T01:19:42;7.70;99.90
26063;DHT22;13837;48.562;12.108;2022-09-29T01:22:24;7.70;99.90
26063;DHT22;13837;48.562;12.108;2022-09-29T01:25:02;7.60;99.90
26063;DHT22;13837;48.562;12.108;2022-09-29T01:27:35;7.50;99.90
26063;DHT22;13837;48.562;12.108;2022-09-29T01:43:41;7.10;99.90
26063;DHT22;13837;48.562;12.108;2022-09-29T01:46:37;7.20;99.90
26063;DHT22;13837;48.562;12.108;2022-09-29T01:49:04;7.10;99.90
26063;DHT22;13837;48.562;12.108;2022-09-29T01:51:44;7.10;99.90
26063;DHT22;13837;48.562;12.108;2022-09-29T01:54:17;7.10;99.90
26063;DHT22;13837;48.562;12.108;2022-09-29T01:56:51;7.00;99.90
26063;DHT22;13837;48.562;12.108;2022-09-29T01:59:22;7.00;99.90
26063;DHT22;13837;48.562;12.108;2022-09-29T02:01:50;7.00;99.90
26063;DHT22;13837;48.562;12.108;2022-09-29T02:04:30;7.00;99.90
26063;DHT22;13837;48.562;12.108;2022-09-29T02:07:05;7.00;99.90
26063;DHT22;13837;48.562;12.108;2022-09-29T02:09:39;7.00;99.90
26063;DHT22;13837;48.562;12.108;2022-09-29T02:12:09;7.00;99.90
26063;DHT22;13837;48.562;12.108;2022-09-29T02:14:42;7.00;99.90
26063;DHT22;13837;48.562;12.108;2022-09-29T02:17:15;7.00;99.90
26063;DHT22;13837;48.562;12.108;2022-09-29T02:19:45;7.00;99.90
26063;DHT22;13837;48.562;12.108;2022-09-29T02:22:12;7.00;99.90
26063;DHT22;13837;48.562;12.108;2022-09-29T02:24:39;7.00;99.90
26063;DHT22;13837;48.562;12.108;2022-09-29T02:27:08;7.00;99.90
26063;DHT22;13837;48.562;12.108;2022-09-29T02:29:35;7.00;99.90
26063;DHT22;13837;48.562;12.108;2022-09-29T02:32:05;7.00;99.90
26063;DHT22;13837;48.562;12.108;2022-09-29T02:34:36;7.00;99.90
26063;DHT22;13837;48.562;12.108;2022-09-29T02:40:14;7.00;99.90
26063;DHT22;13837;48.562;12.108;2022-09-29T02:43:17;7.00;99.90
26063;DHT22;13837;48.562;12.108;2022-09-29T02:53:57;7.10;99.90
26063;DHT22;13837;48.562;12.108;2022-09-29T02:59:06;7.00;99.90
26063;DHT22;13837;48.562;12.108;2022-09-29T03:01:33;7.10;99.90
26063;DHT22;13837;48.562;12.108;2022-09-29T03:04:00;7.00;99.90
26063;DHT22;13837;48.562;12.108;2022-09-29T03:06:26;7.10;99.90
26063;DHT22;13837;48.562;12.108;2022-09-29T03:08:52;7.10;99.90
26063;DHT22;13837;48.562;12.108;2022-09-29T03:11:18;7.10;99.90
26063;DHT22;13837;48.562;12.108;2022-09-29T03:13:44;7.10;99.90
26063;DHT22;13837;48.562;12.108;2022-09-29T03:16:09;7.10;99.90
26063;DHT22;13837;48.562;12.108;2022-09-29T03:18:36;7.00;99.90
26063;DHT22;13837;48.562;12.108;2022-09-29T03:21:02;7.10;99.90
26063;DHT22;13837;48.562;12.108;2022-09-29T03:23:28;7.00;99.90
26063;DHT22;13837;48.562;12.108;2022-09-29T03:25:53;7.00;99.90
26063;DHT22;13837;48.562;12.108;2022-09-29T03:28:19;7.00;99.90
26063;DHT22;13837;48.562;12.108;2022-09-29T03:30:45;7.00;99.90
26063;DHT22;13837;48.562;12.108;2022-09-29T03:33:11;7.00;99.90
26063;DHT22;13837;48.562;12.108;2022-09-29T03:35:37;7.00;99.90
26063;DHT22;13837;48.562;12.108;2022-09-29T03:38:03;7.00;99.90
26063;DHT22;13837;48.562;12.108;2022-09-29T03:40:28;7.00;99.90
26063;DHT22;13837;48.562;12.108;2022-09-29T03:42:54;7.00;99.90
26063;DHT22;13837;48.562;12.108;2022-09-29T03:45:20;7.00;99.90
26063;DHT22;13837;48.562;12.108;2022-09-29T03:47:45;7.00;99.90
26063;DHT22;13837;48.562;12.108;2022-09-29T03:50:12;7.00;99.90
26063;DHT22;13837;48.562;12.108;2022-09-29T03:52:38;7.00;99.90
26063;DHT22;13837;48.562;12.108;2022-09-29T03:55:04;7.00;99.90
26063;DHT22;13837;48.562;12.108;2022-09-29T03:57:29;7.00;99.90
26063;DHT22;13837;48.562;12.108;2022-09-29T03:59:55;7.00;99.90
26063;DHT22;13837;48.562;12.108;2022-09-29T04:02:22;7.00;99.90
26063;DHT22;13837;48.562;12.108;2022-09-29T04:04:47;7.00;99.90
26063;DHT22;13837;48.562;12.108;2022-09-29T04:07:14;6.90;99.90
26063;DHT22;13837;48.562;12.108;2022-09-29T04:09:39;6.90;99.90
26063;DHT22;13837;48.562;12.108;2022-09-29T04:12:05;6.90;99.90
26063;DHT22;13837;48.562;12.108;2022-09-29T04:14:31;6.90;99.90
26063;DHT22;13837;48.562;12.108;2022-09-29T04:16:57;6.80;99.90
26063;DHT22;13837;48.562;12.108;2022-09-29T04:19:22;6.80;99.90
26063;DHT22;13837;48.562;12.108;2022-09-29T04:21:49;6.80;99.90
26063;DHT22;13837;48.562;12.108;2022-09-29T04:24:14;6.80;99.90
26063;DHT22;13837;48.562;12.108;2022-09-29T04:26:40;6.70;99.90
26063;DHT22;13837;48.562;12.108;2022-09-29T04:29:06;6.70;99.90
26063;DHT22;13837;48.562;12.108;2022-09-29T04:31:32;6.60;99.90
26063;DHT22;13837;48.562;12.108;2022-09-29T04:33:58;6.50;99.90
26063;DHT22;13837;48.562;12.108;2022-09-29T04:36:23;6.50;99.90
26063;DHT22;13837;48.562;12.108;2022-09-29T04:38:49;6.50;99.90
26063;DHT22;13837;48.562;12.108;2022-09-29T04:41:16;6.40;99.90
26063;DHT22;13837;48.562;12.108;2022-09-29T04:43:42;6.30;99.90
26063;DHT22;13837;48.562;12.108;2022-09-29T04:46:08;6.30;99.90
26063;DHT22;13837;48.562;12.108;2022-09-29T04:48:35;6.30;99.90
26063;DHT22;13837;48.562;12.108;2022-09-29T04:51:01;6.30;99.90
26063;DHT22;13837;48.562;12.108;2022-09-29T04:53:31;6.30;99.90
26063;DHT22;13837;48.562;12.108;2022-09-29T04:55:57;6.30;99.90
26063;DHT22;13837;48.562;12.108;2022-09-29T04:58:22;6.30;99.90
26063;DHT22;13837;48.562;12.108;2022-09-29T05:00:48;6.30;99.90
26063;DHT22;13837;48.562;12.108;2022-09-29T05:03:14;6.30;99.90
26063;DHT22;13837;48.562;12.108;2022-09-29T05:05:39;6.30;99.90
26063;DHT22;13837;48.562;12.108;2022-09-29T05:08:05;6.30;99.90
26063;DHT22;13837;48.562;12.108;2022-09-29T05:10:31;6.30;99.90
26063;DHT22;13837;48.562;12.108;2022-09-29T05:12:57;6.40;99.90
26063;DHT22;13837;48.562;12.108;2022-09-29T05:15:23;6.40;99.90
26063;DHT22;13837;48.562;12.108;2022-09-29T05:17:49;6.40;99.90
26063;DHT22;13837;48.562;12.108;2022-09-29T05:20:15;6.40;99.90
26063;DHT22;13837;48.562;12.108;2022-09-29T05:22:42;6.50;99.90
26063;DHT22;13837;48.562;12.108;2022-09-29T05:25:08;6.50;99.90
26063;DHT22;13837;48.562;12.108;2022-09-29T05:27:35;6.50;99.90
26063;DHT22;13837;48.562;12.108;2022-09-29T05:30:02;6.50;99.90
26063;DHT22;13837;48.562;12.108;2022-09-29T05:32:28;6.50;99.90
26063;DHT22;13837;48.562;12.108;2022-09-29T05:34:55;6.50;99.90
26063;DHT22;13837;48.562;12.108;2022-09-29T05:37:20;6.40;99.90
26063;DHT22;13837;48.562;12.108;2022-09-29T05:39:46;6.40;99.90
26063;DHT22;13837;48.562;12.108;2022-09-29T05:42:12;6.40;99.90
26063;DHT22;13837;48.562;12.108;2022-09-29T05:44:38;6.50;99.90
26063;DHT22;13837;48.562;12.108;2022-09-29T05:47:03;6.50;99.90
26063;DHT22;13837;48.562;12.108;2022-09-29T05:49:29;6.40;99.90
26063;DHT22;13837;48.562;12.108;2022-09-29T05:51:59;6.50;99.90
26063;DHT22;13837;48.562;12.108;2022-09-29T05:54:25;6.50;99.90
26063;DHT22;13837;48.562;12.108;2022-09-29T05:56:52;6.60;99.90
26063;DHT22;13837;48.562;12.108;2022-09-29T05:59:18;6.60;99.90
26063;DHT22;13837;48.562;12.108;2022-09-29T06:01:43;6.50;99.90
26063;DHT22;13837;48.562;12.108;2022-09-29T06:04:09;6.50;99.90
26063;DHT22;13837;48.562;12.108;2022-09-29T06:06:35;6.50;99.90
26063;DHT22;13837;48.562;12.108;2022-09-29T06:09:01;6.60;99.90
26063;DHT22;13837;48.562;12.108;2022-09-29T06:11:28;6.70;99.90
26063;DHT22;13837;48.562;12.108;2022-09-29T06:13:56;6.90;99.90
26063;DHT22;13837;48.562;12.108;2022-09-29T06:16:28;7.00;99.90
26063;DHT22;13837;48.562;12.108;2022-09-29T06:18:54;7.00;99.90
26063;DHT22;13837;48.562;12.108;2022-09-29T06:21:26;7.20;99.90
26063;DHT22;13837;48.562;12.108;2022-09-29T06:23:56;7.40;99.90
26063;DHT22;13837;48.562;12.108;2022-09-29T06:26:23;7.50;99.90
26063;DHT22;13837;48.562;12.108;2022-09-29T06:28:49;7.60;99.90
26063;DHT22;13837;48.562;12.108;2022-09-29T06:31:17;7.90;99.90
26063;DHT22;13837;48.562;12.108;2022-09-29T06:33:44;8.00;99.90
26063;DHT22;13837;48.562;12.108;2022-09-29T06:39:04;8.80;99.90
26063;DHT22;13837;48.562;12.108;2022-09-29T06:41:30;9.20;99.90
26063;DHT22;13837;48.562;12.108;2022-09-29T06:43:56;9.30;99.90
26063;DHT22;13837;48.562;12.108;2022-09-29T06:46:21;9.30;99.90
26063;DHT22;13837;48.562;12.108;2022-09-29T06:48:47;9.20;99.90
26063;DHT22;13837;48.562;12.108;2022-09-29T06:51:13;9.10;99.90
26063;DHT22;13837;48.562;12.108;2022-09-29T06:53:39;9.20;99.90
26063;DHT22;13837;48.562;12.108;2022-09-29T06:56:06;9.30;99.90
26063;DHT22;13837;48.562;12.108;2022-09-29T06:58:33;9.30;99.90
26063;DHT22;13837;48.562;12.108;2022-09-29T07:01:01;9.40;99.90
26063;DHT22;13837;48.562;12.108;2022-09-29T07:03:28;9.60;99.90
26063;DHT22;13837;48.562;12.108;2022-09-29T07:05:54;10.00;99.90
26063;DHT22;13837;48.562;12.108;2022-09-29T07:08:20;10.40;99.90
26063;DHT22;13837;48.562;12.108;2022-09-29T07:10:46;10.70;99.90
26063;DHT22;13837;48.562;12.108;2022-09-29T07:13:12;11.00;99.90
26063;DHT22;13837;48.562;12.108;2022-09-29T07:15:38;11.10;99.90
26063;DHT22;13837;48.562;12.108;2022-09-29T07:18:04;11.10;99.90
26063;DHT22;13837;48.562;12.108;2022-09-29T07:20:31;11.10;99.90
26063;DHT22;13837;48.562;12.108;2022-09-29T07:22:58;11.10;99.90
26063;DHT22;13837;48.562;12.108;2022-09-29T07:25:24;11.10;99.90
26063;DHT22;13837;48.562;12.108;2022-09-29T07:27:50;10.80;99.90
26063;DHT22;13837;48.562;12.108;2022-09-29T07:30:16;10.80;99.90
26063;DHT22;13837;48.562;12.108;2022-09-29T07:32:42;10.60;99.90
26063;DHT22;13837;48.562;12.108;2022-09-29T07:35:08;10.60;99.90
26063;DHT22;13837;48.562;12.108;2022-09-29T07:37:34;10.50;99.90
26063;DHT22;13837;48.562;12.108;2022-09-29T07:40:00;10.60;99.90
26063;DHT22;13837;48.562;12.108;2022-09-29T07:42:29;10.50;99.90
26063;DHT22;13837;48.562;12.108;2022-09-29T07:44:55;10.50;99.90
26063;DHT22;13837;48.562;12.108;2022-09-29T07:47:21;10.70;99.90
26063;DHT22;13837;48.562;12.108;2022-09-29T07:49:47;10.80;99.90
26063;DHT22;13837;48.562;12.108;2022-09-29T07:52:13;10.70;99.90
26063;DHT22;13837;48.562;12.108;2022-09-29T07:54:39;10.80;99.90
26063;DHT22;13837;48.562;12.108;2022-09-29T07:57:05;10.70;99.90
26063;DHT22;13837;48.562;12.108;2022-09-29T07:59:31;10.70;99.90
26063;DHT22;13837;48.562;12.108;2022-09-29T08:01:57;10.80;99.90
26063;DHT22;13837;48.562;12.108;2022-09-29T08:04:22;10.80;99.90
26063;DHT22;13837;48.562;12.108;2022-09-29T08:06:49;10.80;99.90
26063;DHT22;13837;48.562;12.108;2022-09-29T08:09:15;10.80;99.90
26063;DHT22;13837;48.562;12.108;2022-09-29T08:11:42;11.00;99.90
26063;DHT22;13837;48.562;12.108;2022-09-29T08:14:10;11.30;99.90
26063;DHT22;13837;48.562;12.108;2022-09-29T08:16:36;11.70;99.90
26063;DHT22;13837;48.562;12.108;2022-09-29T08:19:03;12.40;99.90
26063;DHT22;13837;48.562;12.108;2022-09-29T08:21:31;12.80;99.90
26063;DHT22;13837;48.562;12.108;2022-09-29T08:24:04;13.00;99.90
26063;DHT22;13837;48.562;12.108;2022-09-29T08:26:32;13.10;99.90
26063;DHT22;13837;48.562;12.108;2022-09-29T08:29:00;13.00;99.90
26063;DHT22;13837;48.562;12.108;2022-09-29T08:31:26;13.30;99.90
26063;DHT22;13837;48.562;12.108;2022-09-29T08:33:55;13.80;99.90
26063;DHT22;13837;48.562;12.108;2022-09-29T08:36:22;14.20;99.90
26063;DHT22;13837;48.562;12.108;2022-09-29T08:38:49;14.30;99.90
26063;DHT22;13837;48.562;12.108;2022-09-29T08:41:28;14.90;99.90
26063;DHT22;13837;48.562;12.108;2022-09-29T08:44:28;15.70;99.90
26063;DHT22;13837;48.562;12.108;2022-09-29T08:46:58;16.20;99.90
26063;DHT22;13837;48.562;12.108;2022-09-29T08:49:52;16.00;99.90
26063;DHT22;13837;48.562;12.108;2022-09-29T08:52:27;15.40;99.90
26063;DHT22;13837;48.562;12.108;2022-09-29T08:57:45;14.80;99.90
26063;DHT22;13837;48.562;12.108;2022-09-29T09:00:16;14.50;99.90
26063;DHT22;13837;48.562;12.108;2022-09-29T09:08:15;13.30;99.90
26063;DHT22;13837;48.562;12.108;2022-09-29T09:10:49;13.30;99.90
26063;DHT22;13837;48.562;12.108;2022-09-29T09:21:43;13.10;99.90
26063;DHT22;13837;48.562;12.108;2022-09-29T09:25:26;12.90;99.90
26063;DHT22;13837;48.562;12.108;2022-09-29T09:27:34;12.90;99.90
26063;DHT22;13837;48.562;12.108;2022-09-29T09:30:21;12.80;99.90
26063;DHT22;13837;48.562;12.108;2022-09-29T09:33:00;12.70;99.90
26063;DHT22;13837;48.562;12.108;2022-09-29T09:35:41;12.70;99.90
26063;DHT22;13837;48.562;12.108;2022-09-29T09:38:20;12.70;99.90
26063;DHT22;13837;48.562;12.108;2022-09-29T09:40:50;12.70;99.90
26063;DHT22;13837;48.562;12.108;2022-09-29T09:43:38;12.80;99.90
26063;DHT22;13837;48.562;12.108;2022-09-29T09:46:30;12.90;99.90
26063;DHT22;13837;48.562;12.108;2022-09-29T09:49:12;13.20;99.90
26063;DHT22;13837;48.562;12.108;2022-09-29T09:55:12;13.60;99.90
26063;DHT22;13837;48.562;12.108;2022-09-29T10:02:51;13.40;99.90
26063;DHT22;13837;48.562;12.108;2022-09-29T10:05:22;13.30;99.90
26063;DHT22;13837;48.562;12.108;2022-09-29T10:07:52;13.30;99.90
26063;DHT22;13837;48.562;12.108;2022-09-29T10:10:23;13.30;99.90
26063;DHT22;13837;48.562;12.108;2022-09-29T10:13:04;13.30;99.90
26063;DHT22;13837;48.562;12.108;2022-09-29T10:16:08;13.20;99.90
26063;DHT22;13837;48.562;12.108;2022-09-29T10:21:02;13.00;99.90
26063;DHT22;13837;48.562;12.108;2022-09-29T10:23:33;12.70;99.90
26063;DHT22;13837;48.562;12.108;2022-09-29T10:28:53;12.50;99.90
26063;DHT22;13837;48.562;12.108;2022-09-29T10:31:34;12.50;99.90
26063;DHT22;13837;48.562;12.108;2022-09-29T10:34:16;12.40;99.90
26063;DHT22;13837;48.562;12.108;2022-09-29T10:37:19;12.30;99.90
26063;DHT22;13837;48.562;12.108;2022-09-29T10:39:48;12.30;99.90
26063;DHT22;13837;48.562;12.108;2022-09-29T10:42:30;12.40;99.90
26063;DHT22;13837;48.562;12.108;2022-09-29T10:45:10;12.40;99.90
26063;DHT22;13837;48.562;12.108;2022-09-29T10:47:36;12.60;99.90
26063;DHT22;13837;48.562;12.108;2022-09-29T10:50:25;12.70;99.90
26063;DHT22;13837;48.562;12.108;2022-09-29T10:52:55;12.70;99.90
26063;DHT22;13837;48.562;12.108;2022-09-29T10:55:27;12.70;99.90
26063;DHT22;13837;48.562;12.108;2022-09-29T10:57:57;12.60;99.90
26063;DHT22;13837;48.562;12.108;2022-09-29T11:03:03;12.60;99.90
26063;DHT22;13837;48.562;12.108;2022-09-29T11:05:31;12.70;99.90
26063;DHT22;13837;48.562;12.108;2022-09-29T11:07:57;12.60;99.90
26063;DHT22;13837;48.562;12.108;2022-09-29T11:12:54;12.40;99.90
26063;DHT22;13837;48.562;12.108;2022-09-29T11:17:53;12.20;99.90
26063;DHT22;13837;48.562;12.108;2022-09-29T11:20:22;12.10;99.90
26063;DHT22;13837;48.562;12.108;2022-09-29T11:23:17;12.20;99.90
26063;DHT22;13837;48.562;12.108;2022-09-29T11:34:02;12.30;99.90
26063;DHT22;13837;48.562;12.108;2022-09-29T11:56:32;11.90;99.90
26063;DHT22;13837;48.562;12.108;2022-09-29T11:59:24;11.90;99.90
26063;DHT22;13837;48.562;12.108;2022-09-29T12:02:20;11.90;99.90
26063;DHT22;13837;48.562;12.108;2022-09-29T12:10:45;11.90;99.90
26063;DHT22;13837;48.562;12.108;2022-09-29T12:16:13;11.80;99.90
26063;DHT22;13837;48.562;12.108;2022-09-29T12:21:13;11.80;99.90
26063;DHT22;13837;48.562;12.108;2022-09-29T12:23:42;11.80;99.90
26063;DHT22;13837;48.562;12.108;2022-09-29T12:26:20;11.80;99.90
26063;DHT22;13837;48.562;12.108;2022-09-29T12:28:59;11.80;99.90
26063;DHT22;13837;48.562;12.108;2022-09-29T12:31:43;11.80;99.90
26063;DHT22;13837;48.562;12.108;2022-09-29T12:34:16;11.80;99.90
26063;DHT22;13837;48.562;12.108;2022-09-29T12:39:25;11.80;99.90
26063;DHT22;13837;48.562;12.108;2022-09-29T12:42:00;11.80;99.90
26063;DHT22;13837;48.562;12.108;2022-09-29T12:44:41;11.80;99.90
26063;DHT22;13837;48.562;12.108;2022-09-29T12:50:14;11.70;99.90
26063;DHT22;13837;48.562;12.108;2022-09-29T12:53:33;11.80;99.90
26063;DHT22;13837;48.562;12.108;2022-09-29T12:58:32;11.90;99.90
26063;DHT22;13837;48.562;12.108;2022-09-29T13:01:29;11.90;99.90
26063;DHT22;13837;48.562;12.108;2022-09-29T13:06:47;11.80;99.90
26063;DHT22;13837;48.562;12.108;2022-09-29T13:12:27;11.80;99.90
26063;DHT22;13837;48.562;12.108;2022-09-29T13:29:23;12.20;99.90
26063;DHT22;13837;48.562;12.108;2022-09-29T13:31:52;12.30;99.90
26063;DHT22;13837;48.562;12.108;2022-09-29T13:34:32;12.30;99.90
26063;DHT22;13837;48.562;12.108;2022-09-29T13:37:16;12.30;99.90
26063;DHT22;13837;48.562;12.108;2022-09-29T13:39:56;12.30;99.90
26063;DHT22;13837;48.562;12.108;2022-09-29T13:42:43;12.40;99.90
26063;DHT22;13837;48.562;12.108;2022-09-29T13:50:40;12.60;99.90
26063;DHT22;13837;48.562;12.108;2022-09-29T13:55:55;12.60;99.90
26063;DHT22;13837;48.562;12.108;2022-09-29T13:58:36;12.60;99.90
26063;DHT22;13837;48.562;12.108;2022-09-29T14:01:08;12.50;99.90
26063;DHT22;13837;48.562;12.108;2022-09-29T14:03:39;12.50;99.90
26063;DHT22;13837;48.562;12.108;2022-09-29T14:06:12;12.30;99.90
26063;DHT22;13837;48.562;12.108;2022-09-29T14:11:40;12.20;99.90
26063;DHT22;13837;48.562;12.108;2022-09-29T14:16:46;12.10;99.90
26063;DHT22;13837;48.562;12.108;2022-09-29T14:21:59;11.80;99.90
26063;DHT22;13837;48.562;12.108;2022-09-29T14:29:46;11.60;99.90
26063;DHT22;13837;48.562;12.108;2022-09-29T14:32:22;11.60;99.90
26063;DHT22;13837;48.562;12.108;2022-09-29T14:34:52;11.70;99.90
26063;DHT22;13837;48.562;12.108;2022-09-29T14:37:21;11.70;99.90
26063;DHT22;13837;48.562;12.108;2022-09-29T14:39:51;11.70;99.90
26063;DHT22;13837;48.562;12.108;2022-09-29T14:42:38;11.70;99.90
26063;DHT22;13837;48.562;12.108;2022-09-29T14:45:04;11.70;99.90
26063;DHT22;13837;48.562;12.108;2022-09-29T14:48:04;11.70;99.90
26063;DHT22;13837;48.562;12.108;2022-09-29T14:51:38;11.70;99.90
26063;DHT22;13837;48.562;12.108;2022-09-29T15:02:21;11.80;99.90
26063;DHT22;13837;48.562;12.108;2022-09-29T15:04:49;11.60;99.90
26063;DHT22;13837;48.562;12.108;2022-09-29T15:07:21;11.60;99.90
26063;DHT22;13837;48.562;12.108;2022-09-29T15:09:50;11.50;99.90
26063;DHT22;13837;48.562;12.108;2022-09-29T15:12:28;11.40;99.90
26063;DHT22;13837;48.562;12.108;2022-09-29T15:14:55;11.40;99.90
26063;DHT22;13837;48.562;12.108;2022-09-29T15:17:47;11.30;99.90
26063;DHT22;13837;48.562;12.108;2022-09-29T15:20:25;11.30;99.90
26063;DHT22;13837;48.562;12.108;2022-09-29T15:25:42;11.30;99.90
26063;DHT22;13837;48.562;12.108;2022-09-29T15:28:20;11.30;99.90
26063;DHT22;13837;48.562;12.108;2022-09-29T15:30:51;11.30;99.90
26063;DHT22;13837;48.562;12.108;2022-09-29T15:33:21;11.10;99.90
26063;DHT22;13837;48.562;12.108;2022-09-29T15:35:51;11.20;99.90
26063;DHT22;13837;48.562;12.108;2022-09-29T15:40:54;11.10;99.90
26063;DHT22;13837;48.562;12.108;2022-09-29T15:43:22;11.10;99.90
26063;DHT22;13837;48.562;12.108;2022-09-29T15:46:17;11.10;99.90
26063;DHT22;13837;48.562;12.108;2022-09-29T15:49:10;11.00;99.90
26063;DHT22;13837;48.562;12.108;2022-09-29T15:51:38;11.00;99.90
26063;DHT22;13837;48.562;12.108;2022-09-29T15:54:05;10.90;99.90
26063;DHT22;13837;48.562;12.108;2022-09-29T15:56:34;10.90;99.90
26063;DHT22;13837;48.562;12.108;2022-09-29T15:59:20;10.70;99.90
26063;DHT22;13837;48.562;12.108;2022-09-29T16:01:48;10.80;99.90
26063;DHT22;13837;48.562;12.108;2022-09-29T16:04:14;10.80;99.90
26063;DHT22;13837;48.562;12.108;2022-09-29T16:06:43;10.90;99.90
26063;DHT22;13837;48.562;12.108;2022-09-29T16:09:18;10.90;99.90
26063;DHT22;13837;48.562;12.108;2022-09-29T16:11:44;10.80;99.90
26063;DHT22;13837;48.562;12.108;2022-09-29T16:14:19;10.80;99.90
26063;DHT22;13837;48.562;12.108;2022-09-29T16:16:49;10.80;99.90
26063;DHT22;13837;48.562;12.108;2022-09-29T16:21:56;10.70;99.90
26063;DHT22;13837;48.562;12.108;2022-09-29T16:24:26;10.70;99.90
26063;DHT22;13837;48.562;12.108;2022-09-29T16:26:55;10.50;99.90
26063;DHT22;13837;48.562;12.108;2022-09-29T16:29:22;10.50;99.90
26063;DHT22;13837;48.562;12.108;2022-09-29T16:31:49;10.40;99.90
26063;DHT22;13837;48.562;12.108;2022-09-29T16:34:28;10.40;99.90
26063;DHT22;13837;48.562;12.108;2022-09-29T16:37:03;10.30;99.90
26063;DHT22;13837;48.562;12.108;2022-09-29T16:39:38;10.30;99.90
26063;DHT22;13837;48.562;12.108;2022-09-29T16:42:05;10.20;99.90
26063;DHT22;13837;48.562;12.108;2022-09-29T16:44:40;10.20;99.90
26063;DHT22;13837;48.562;12.108;2022-09-29T16:47:21;10.10;99.90
26063;DHT22;13837;48.562;12.108;2022-09-29T16:50:09;10.10;99.90
26063;DHT22;13837;48.562;12.108;2022-09-29T16:52:51;10.10;99.90
26063;DHT22;13837;48.562;12.108;2022-09-29T17:00:23;10.00;99.90
26063;DHT22;13837;48.562;12.108;2022-09-29T17:02:53;10.10;99.90
26063;DHT22;13837;48.562;12.108;2022-09-29T17:05:20;10.10;99.90
26063;DHT22;13837;48.562;12.108;2022-09-29T17:07:46;10.10;99.90
26063;DHT22;13837;48.562;12.108;2022-09-29T17:10:18;10.10;99.90
26063;DHT22;13837;48.562;12.108;2022-09-29T17:12:45;10.10;99.90
26063;DHT22;13837;48.562;12.108;2022-09-29T17:15:14;10.10;99.90
26063;DHT22;13837;48.562;12.108;2022-09-29T17:17:41;10.00;99.90
26063;DHT22;13837;48.562;12.108;2022-09-29T17:20:13;10.00;99.90
26063;DHT22;13837;48.562;12.108;2022-09-29T17:22:39;10.00;99.90
26063;DHT22;13837;48.562;12.108;2022-09-29T17:25:06;9.90;99.90
26063;DHT22;13837;48.562;12.108;2022-09-29T17:27:32;9.80;99.90
26063;DHT22;13837;48.562;12.108;2022-09-29T17:30:19;9.70;99.90
26063;DHT22;13837;48.562;12.108;2022-09-29T17:32:57;9.70;99.90
26063;DHT22;13837;48.562;12.108;2022-09-29T17:35:28;9.60;99.90
26063;DHT22;13837;48.562;12.108;2022-09-29T17:37:54;9.60;99.90
26063;DHT22;13837;48.562;12.108;2022-09-29T17:40:28;9.70;99.90
26063;DHT22;13837;48.562;12.108;2022-09-29T17:42:55;9.70;99.90
26063;DHT22;13837;48.562;12.108;2022-09-29T17:45:24;9.70;99.90
26063;DHT22;13837;48.562;12.108;2022-09-29T17:47:51;9.70;99.90
26063;DHT22;13837;48.562;12.108;2022-09-29T17:52:50;9.60;99.90
26063;DHT22;13837;48.562;12.108;2022-09-29T17:55:16;9.60;99.90
26063;DHT22;13837;48.562;12.108;2022-09-29T17:57:43;9.60;99.90
26063;DHT22;13837;48.562;12.108;2022-09-29T18:02:49;9.60;99.90
26063;DHT22;13837;48.562;12.108;2022-09-29T18:05:17;9.60;99.90
26063;DHT22;13837;48.562;12.108;2022-09-29T18:07:51;9.60;99.90
26063;DHT22;13837;48.562;12.108;2022-09-29T18:10:42;9.50;99.90
26063;DHT22;13837;48.562;12.108;2022-09-29T18:13:08;9.50;99.90
26063;DHT22;13837;48.562;12.108;2022-09-29T18:15:35;9.40;99.90
26063;DHT22;13837;48.562;12.108;2022-09-29T18:18:02;9.50;99.90
26063;DHT22;13837;48.562;12.108;2022-09-29T18:20:30;9.40;99.90
26063;DHT22;13837;48.562;12.108;2022-09-29T18:22:58;9.50;99.90
26063;DHT22;13837;48.562;12.108;2022-09-29T18:25:29;9.40;99.90
26063;DHT22;13837;48.562;12.108;2022-09-29T18:27:55;9.40;99.90
26063;DHT22;13837;48.562;12.108;2022-09-29T18:30:29;9.40;99.90
26063;DHT22;13837;48.562;12.108;2022-09-29T18:32:57;9.40;99.90
26063;DHT22;13837;48.562;12.108;2022-09-29T18:35:28;9.40;99.90
26063;DHT22;13837;48.562;12.108;2022-09-29T18:37:55;9.40;99.90
26063;DHT22;13837;48.562;12.108;2022-09-29T18:40:23;9.40;99.90
26063;DHT22;13837;48.562;12.108;2022-09-29T18:42:50;9.40;99.90
26063;DHT22;13837;48.562;12.108;2022-09-29T18:45:26;9.30;99.90
26063;DHT22;13837;48.562;12.108;2022-09-29T18:47:57;9.30;99.90
26063;DHT22;13837;48.562;12.108;2022-09-29T18:50:26;9.40;99.90
26063;DHT22;13837;48.562;12.108;2022-09-29T18:52:52;9.40;99.90
26063;DHT22;13837;48.562;12.108;2022-09-29T18:55:21;9.40;99.90
26063;DHT22;13837;48.562;12.108;2022-09-29T18:57:49;9.30;99.90
26063;DHT22;13837;48.562;12.108;2022-09-29T19:00:19;9.30;99.90
26063;DHT22;13837;48.562;12.108;2022-09-29T19:02:45;9.40;99.90